Airfield :
LOGIN :

Register | Disclaimer

   EN    FR    IT 

 










Legend :    VFR   Marginal VFR   IFR   Intensive IFR   Very Intensive IFR
Visi :
Ceiling :
>= 8 km
>= 3000ft
5 to 8 km
1000 to 3000 ft
1500m to 5 km
500 to 1000 ft
800 to 1500m
200 to 500 ft
< 800m
< 200 ft
Symbols :   Thunderstorms  Fog  Heavy snow  Heavy precipitations  Wind > 20 kt
SIGMETs :     Misc.  Thunderstorms  Icing  Turbulence  Mountain Waves  Volcanic Ashes






- Airport Elevation : 196 ft
- IATA code : SDN


ENSD - Sandane , Anda

CURRENT METAR :
  • 171520Z VRB01KT 9999 SCT008 M01/M01 Q1015 RMK WIND 1138FT 07004KT

EXPIRED METARs :
  • 171450Z VRB01KT 9999 SCT007 M01/M01 Q1015 RMK WIND 1138FT 07004KT
  • 171420Z VRB01KT 9999 FEW007 M01/M01 Q1014 RMK WIND 1138FT 07003KT
  • 171350Z VRB01KT CAVOK M01/M01 Q1014 RMK WIND 1138FT 08003KT
  • 171320Z VRB01KT CAVOK M00/M00 Q1013 RMK WIND 1138FT VRB02KT
  • 171250Z VRB02KT CAVOK M00/M00 Q1013 RMK WIND 1138FT VRB02KT

TAF N/A



MET'MAP, your aeronautical weather chart ! - Copyright ORBIFLY December 2007 - Disclaimer

ORBIFLY MET'MAP TEAM :

Programming & Development : Alexandra Zaïnal
Concept & Development : Baudouin d'Aumeries
Co-Development & Prog : Marc-Olivier Méhu
Technical & hardware support : Manuel Goepfert

Contact : metmap@orbifly.com




SOURCES & CREDITS :

   NOAA